createdAt,value
2022-10-03T00:01:41.936Z,9.82
2022-10-03T00:04:28.088Z,11.63
2022-10-03T00:07:06.028Z,10.85
2022-10-03T00:09:48.757Z,12.25
2022-10-03T00:12:36.778Z,13.32
2022-10-03T00:15:12.286Z,11.43
2022-10-03T00:17:50.398Z,15.90
2022-10-03T00:20:47.331Z,14.90
2022-10-03T00:23:22.579Z,12.55
2022-10-03T00:26:01.404Z,16.77
2022-10-03T00:28:51.127Z,11.15
2022-10-03T00:31:26.230Z,12.98
2022-10-03T00:34:07.072Z,12.07
2022-10-03T00:36:43.679Z,14.80
2022-10-03T00:39:32.794Z,10.63
2022-10-03T00:42:45.313Z,14.00
2022-10-03T00:45:46.058Z,15.50
2022-10-03T00:48:46.792Z,20.67
2022-10-03T00:51:41.136Z,15.88
2022-10-03T00:54:26.863Z,12.98
2022-10-03T00:57:09.039Z,10.20
2022-10-03T00:59:54.756Z,19.23
2022-10-03T01:02:47.159Z,10.05
2022-10-03T01:05:28.346Z,12.27
2022-10-03T01:08:27.981Z,15.25
2022-10-03T01:11:07.767Z,15.30
2022-10-03T01:13:47.777Z,15.38
2022-10-03T01:16:21.708Z,11.43
2022-10-03T01:19:06.529Z,13.73
2022-10-03T01:21:44.087Z,10.75
2022-10-03T01:24:38.296Z,12.88
2022-10-03T01:27:07.839Z,13.60
2022-10-03T01:30:13.739Z,13.77
2022-10-03T01:32:48.781Z,10.32
2022-10-03T01:35:25.237Z,16.60
2022-10-03T01:37:59.589Z,13.43
2022-10-03T01:40:32.906Z,12.98
2022-10-03T01:43:11.887Z,13.88
2022-10-03T01:45:49.636Z,13.27
2022-10-03T01:48:25.900Z,11.52
2022-10-03T01:51:02.281Z,16.80
2022-10-03T01:53:41.991Z,15.25
2022-10-03T01:56:16.895Z,15.68
2022-10-03T01:58:56.712Z,12.32
2022-10-03T02:01:32.629Z,16.05
2022-10-03T02:04:07.755Z,19.90
2022-10-03T02:06:49.193Z,12.00
2022-10-03T02:09:27.221Z,13.63
2022-10-03T02:12:05.526Z,15.95
2022-10-03T02:14:41.988Z,13.93
2022-10-03T02:17:23.994Z,19.42
2022-10-03T02:20:01.553Z,17.58
2022-10-03T02:22:32.519Z,15.95
2022-10-03T02:25:16.936Z,19.77
2022-10-03T02:28:24.658Z,18.20
2022-10-03T02:31:16.190Z,18.75
2022-10-03T02:34:03.101Z,14.32
2022-10-03T02:37:00.881Z,21.27
2022-10-03T02:40:01.603Z,20.13
2022-10-03T02:43:16.315Z,20.83
2022-10-03T02:46:17.568Z,13.52
2022-10-03T02:49:06.470Z,20.63
2022-10-03T02:51:55.930Z,18.45
2022-10-03T02:54:54.842Z,20.00
2022-10-03T02:58:05.739Z,22.77
2022-10-03T03:00:50.279Z,21.67
2022-10-03T03:03:51.669Z,23.98
2022-10-03T03:07:01.888Z,21.20
2022-10-03T03:10:02.319Z,16.58
2022-10-03T03:15:46.856Z,19.25
2022-10-03T03:18:24.205Z,18.63
2022-10-03T03:21:11.410Z,19.45
2022-10-03T03:23:53.116Z,16.70
2022-10-03T03:27:03.772Z,22.95
2022-10-03T03:29:40.350Z,21.38
2022-10-03T03:32:19.588Z,22.33
2022-10-03T03:34:57.201Z,20.23
2022-10-03T03:37:34.754Z,20.45
2022-10-03T03:40:15.629Z,14.40
2022-10-03T03:43:22.313Z,20.45
2022-10-03T03:46:07.650Z,21.23
2022-10-03T03:49:02.124Z,19.33
2022-10-03T03:51:39.131Z,24.00
2022-10-03T03:54:41.368Z,23.67
2022-10-03T03:57:24.037Z,25.30
2022-10-03T04:00:15.907Z,23.15
2022-10-03T04:02:59.622Z,25.77
2022-10-03T04:05:40.834Z,26.63
2022-10-03T04:08:27.067Z,17.73
2022-10-03T04:11:08.159Z,22.83
2022-10-03T04:13:50.081Z,20.75
2022-10-03T04:16:50.240Z,20.48
2022-10-03T04:19:29.920Z,25.42
2022-10-03T04:22:30.005Z,19.15
2022-10-03T04:25:18.089Z,23.17
2022-10-03T04:28:07.385Z,23.40
2022-10-03T04:30:52.891Z,26.33
2022-10-03T04:33:33.986Z,19.13
2022-10-03T04:36:40.875Z,26.80
2022-10-03T04:39:17.628Z,27.25
2022-10-03T04:41:53.046Z,25.00
2022-10-03T04:44:40.496Z,26.50
2022-10-03T04:47:16.806Z,22.85
2022-10-03T04:49:53.071Z,23.42
2022-10-03T04:52:26.439Z,24.48
2022-10-03T04:55:05.077Z,24.55
2022-10-03T04:57:43.379Z,25.75
2022-10-03T05:00:24.423Z,28.48
2022-10-03T05:02:58.930Z,27.23
2022-10-03T05:05:43.474Z,20.75
2022-10-03T05:08:22.431Z,24.30
2022-10-03T05:10:59.483Z,18.05
2022-10-03T05:13:42.384Z,23.40
2022-10-03T05:16:21.955Z,23.30
2022-10-03T05:18:54.964Z,20.52
2022-10-03T05:21:35.248Z,20.60
2022-10-03T05:26:48.606Z,23.05
2022-10-03T05:29:22.125Z,19.52
2022-10-03T05:32:02.286Z,21.35
2022-10-03T05:34:44.670Z,18.77
2022-10-03T05:37:33.094Z,17.45
2022-10-03T05:40:04.778Z,19.17
2022-10-03T05:42:40.607Z,22.40
2022-10-03T05:45:24.492Z,21.90
2022-10-03T05:47:56.594Z,19.17
2022-10-03T05:50:42.625Z,15.43
2022-10-03T05:53:30.134Z,21.77
2022-10-03T05:56:09.197Z,21.83
2022-10-03T05:58:54.486Z,22.83
2022-10-03T06:01:59.661Z,18.95
2022-10-03T06:04:42.920Z,18.00
2022-10-03T06:07:23.193Z,21.17
2022-10-03T06:13:01.200Z,19.73
2022-10-03T06:15:54.387Z,22.48
2022-10-03T06:19:01.270Z,24.00
2022-10-03T06:22:01.761Z,16.77
2022-10-03T06:24:55.276Z,18.35
2022-10-03T06:27:52.851Z,15.55
2022-10-03T06:30:25.267Z,17.15
2022-10-03T06:33:38.524Z,18.73
2022-10-03T06:36:26.642Z,29.67
2022-10-03T06:39:33.093Z,17.98
2022-10-03T06:42:40.834Z,17.63
2022-10-03T06:45:42.037Z,20.77
2022-10-03T06:48:35.070Z,21.98
2022-10-03T06:51:29.679Z,13.25
2022-10-03T06:54:31.723Z,18.88
2022-10-03T06:57:20.871Z,20.20
2022-10-03T07:00:04.536Z,15.88
2022-10-03T07:03:04.771Z,14.20
2022-10-03T07:06:15.395Z,15.05
2022-10-03T07:09:35.612Z,14.90
2022-10-03T07:12:40.681Z,18.55
2022-10-03T07:15:59.394Z,14.82
2022-10-03T07:18:54.849Z,17.38
2022-10-03T07:22:02.193Z,11.85
2022-10-03T07:25:20.476Z,13.80
2022-10-03T07:28:03.175Z,13.25
2022-10-03T07:30:51.983Z,17.73
2022-10-03T07:34:06.696Z,18.23
2022-10-03T07:37:17.111Z,11.20
2022-10-03T07:43:00.322Z,11.05
2022-10-03T07:45:34.957Z,14.10
2022-10-03T07:48:27.254Z,13.63
2022-10-03T07:51:24.431Z,14.18
2022-10-03T07:54:16.052Z,9.88
2022-10-03T07:56:58.897Z,14.43
2022-10-03T07:59:56.720Z,13.18
2022-10-03T08:02:52.980Z,12.75
2022-10-03T08:05:31.999Z,14.65
2022-10-03T08:08:19.549Z,13.85
2022-10-03T08:11:14.158Z,11.70
2022-10-03T08:14:01.407Z,14.60
2022-10-03T08:16:56.888Z,12.93
2022-10-03T08:19:44.308Z,12.48
2022-10-03T08:22:21.499Z,12.40
2022-10-03T08:25:07.311Z,11.52
2022-10-03T08:27:52.764Z,13.95
2022-10-03T08:30:25.419Z,9.05
2022-10-03T08:33:13.549Z,13.48
2022-10-03T08:36:30.388Z,16.20
2022-10-03T08:39:14.965Z,12.77
2022-10-03T08:42:17.697Z,10.00
2022-10-03T08:45:31.978Z,10.70
2022-10-03T08:48:36.185Z,16.63
2022-10-03T08:51:42.221Z,10.38
2022-10-03T08:54:27.271Z,9.38
2022-10-03T08:57:17.294Z,9.13
2022-10-03T09:00:15.544Z,12.77
2022-10-03T09:03:34.972Z,14.75
2022-10-03T09:07:05.228Z,6.60
2022-10-03T09:10:18.121Z,9.23
2022-10-03T09:13:15.275Z,9.70
2022-10-03T09:16:20.822Z,8.57
2022-10-03T09:19:02.741Z,8.80
2022-10-03T09:22:09.556Z,9.32
2022-10-03T09:25:24.506Z,8.60
2022-10-03T09:28:29.190Z,7.60
2022-10-03T09:31:08.277Z,8.05
2022-10-03T09:34:00.239Z,9.85
2022-10-03T09:37:18.460Z,7.88
2022-10-03T09:40:24.513Z,11.13
2022-10-03T09:43:19.399Z,7.82
2022-10-03T09:46:14.516Z,9.93
2022-10-03T09:49:05.869Z,10.82
2022-10-03T09:51:45.451Z,7.55
2022-10-03T09:54:53.797Z,9.18
2022-10-03T09:57:42.365Z,9.13
2022-10-03T10:00:18.625Z,9.10
2022-10-03T10:03:19.083Z,7.68
2022-10-03T10:06:21.597Z,9.85
2022-10-03T10:09:50.266Z,8.63
2022-10-03T10:12:48.362Z,9.93
2022-10-03T10:15:47.585Z,9.30
2022-10-03T10:18:40.374Z,12.15
2022-10-03T10:21:40.569Z,9.05
2022-10-03T10:24:51.598Z,7.75
2022-10-03T10:27:55.257Z,11.52
2022-10-03T10:30:56.428Z,8.93
2022-10-03T10:34:03.224Z,8.38
2022-10-03T10:37:12.145Z,9.48
2022-10-03T10:40:17.623Z,8.93
2022-10-03T10:43:20.828Z,8.43
2022-10-03T10:46:19.937Z,7.15
2022-10-03T10:49:27.478Z,10.40
2022-10-03T10:52:31.741Z,6.35
2022-10-03T10:55:44.059Z,6.95
2022-10-03T10:59:09.074Z,9.80
2022-10-03T11:02:15.896Z,4.68
2022-10-03T11:05:29.747Z,9.00
2022-10-03T11:08:39.997Z,10.00
2022-10-03T11:11:45.292Z,7.28
2022-10-03T11:14:59.612Z,5.25
2022-10-03T11:17:58.820Z,5.73
2022-10-03T11:21:10.164Z,7.13
2022-10-03T11:24:13.473Z,9.48
2022-10-03T11:27:14.536Z,3.92
2022-10-03T11:30:18.576Z,5.63
2022-10-03T11:33:18.796Z,14.38
2022-10-03T11:36:34.372Z,7.13
2022-10-03T11:39:06.303Z,3.83
2022-10-03T11:41:47.419Z,4.75
2022-10-03T11:44:28.593Z,6.75
2022-10-03T11:47:28.139Z,7.85
2022-10-03T11:50:14.794Z,4.33
2022-10-03T11:53:01.795Z,4.65
2022-10-03T11:55:36.735Z,5.32
2022-10-03T11:58:22.161Z,6.00
2022-10-03T12:01:02.322Z,4.40
2022-10-03T12:03:36.921Z,8.88
2022-10-03T12:06:28.155Z,7.13
2022-10-03T12:09:14.158Z,5.03
2022-10-03T12:11:56.313Z,5.70
2022-10-03T12:14:29.451Z,7.60
2022-10-03T12:17:05.770Z,5.40
2022-10-03T12:19:41.101Z,7.72
2022-10-03T12:22:20.744Z,5.88
2022-10-03T12:24:51.028Z,6.15
2022-10-03T12:29:58.998Z,6.00
2022-10-03T12:32:33.576Z,3.78
2022-10-03T12:35:14.871Z,3.85
2022-10-03T12:37:50.625Z,8.65
2022-10-03T12:40:25.029Z,6.63
2022-10-03T12:43:06.817Z,9.27
2022-10-03T12:45:40.532Z,7.10
2022-10-03T12:48:23.742Z,6.07
2022-10-03T12:50:57.081Z,5.82
2022-10-03T12:53:41.788Z,6.35
2022-10-03T12:56:18.834Z,7.47
2022-10-03T12:59:07.751Z,5.90
2022-10-03T13:01:55.096Z,6.40
2022-10-03T13:04:37.193Z,8.82
2022-10-03T13:07:19.675Z,6.10
2022-10-03T13:10:07.426Z,7.53
2022-10-03T13:12:41.747Z,6.47
2022-10-03T13:15:37.539Z,6.72
2022-10-03T13:18:30.136Z,10.45
2022-10-03T13:21:26.655Z,5.90
2022-10-03T13:24:01.104Z,5.18
2022-10-03T13:26:43.397Z,6.85
2022-10-03T13:29:23.801Z,5.70
2022-10-03T13:32:06.212Z,6.30
2022-10-03T13:34:57.186Z,5.32
2022-10-03T13:37:31.520Z,9.50
2022-10-03T13:40:08.126Z,5.20
2022-10-03T13:42:41.028Z,6.60
2022-10-03T13:45:16.251Z,4.55
2022-10-03T13:47:47.530Z,6.63
2022-10-03T13:50:22.978Z,6.40
2022-10-03T13:52:54.771Z,7.55
2022-10-03T13:55:32.321Z,4.50
2022-10-03T13:58:33.017Z,5.75
2022-10-03T14:01:21.672Z,4.95
2022-10-03T14:04:07.110Z,4.57
2022-10-03T14:06:40.984Z,8.63
2022-10-03T14:09:38.980Z,4.80
2022-10-03T14:12:33.138Z,4.97
2022-10-03T14:15:27.715Z,6.47
2022-10-03T14:18:04.246Z,5.57
2022-10-03T14:20:37.588Z,4.35
2022-10-03T14:23:21.462Z,5.18
2022-10-03T14:26:00.290Z,4.10
2022-10-03T14:28:37.372Z,6.80
2022-10-03T14:31:14.624Z,7.03
2022-10-03T14:33:48.156Z,5.93
2022-10-03T14:36:26.137Z,7.55
2022-10-03T14:39:07.568Z,6.07
2022-10-03T14:41:46.443Z,8.00
2022-10-03T14:44:20.309Z,4.78
2022-10-03T14:46:55.569Z,5.25
2022-10-03T14:52:25.918Z,4.82
2022-10-03T14:54:57.802Z,4.80
2022-10-03T14:57:43.669Z,4.68
2022-10-03T15:00:28.419Z,3.55
2022-10-03T15:02:56.632Z,7.22
2022-10-03T15:05:35.656Z,9.48
2022-10-03T15:08:11.643Z,8.63
2022-10-03T15:10:41.046Z,7.40
2022-10-03T15:13:10.668Z,6.13
2022-10-03T15:15:41.760Z,6.03
2022-10-03T15:18:16.895Z,7.53
2022-10-03T15:20:47.030Z,5.60
2022-10-03T15:23:22.336Z,3.35
2022-10-03T15:25:54.841Z,4.55
2022-10-03T15:28:27.873Z,11.40
2022-10-03T15:30:57.915Z,5.18
2022-10-03T15:33:32.354Z,3.65
2022-10-03T15:36:09.349Z,5.00
2022-10-03T15:38:41.282Z,4.10
2022-10-03T15:41:14.392Z,7.05
2022-10-03T15:43:53.935Z,6.10
2022-10-03T15:46:32.894Z,6.90
2022-10-03T15:49:04.056Z,6.28
2022-10-03T15:51:36.281Z,6.20
2022-10-03T15:54:07.730Z,4.72
2022-10-03T15:56:41.310Z,5.75
2022-10-03T15:59:20.230Z,5.68
2022-10-03T16:01:52.886Z,6.25
2022-10-03T16:04:24.315Z,5.13
2022-10-03T16:07:03.318Z,6.60
2022-10-03T16:09:41.214Z,4.68
2022-10-03T16:12:33.121Z,3.00
2022-10-03T16:15:17.253Z,4.28
2022-10-03T16:17:50.704Z,5.60
2022-10-03T16:20:23.802Z,3.65
2022-10-03T16:22:54.955Z,5.70
2022-10-03T16:25:25.420Z,5.30
2022-10-03T16:28:02.111Z,6.63
2022-10-03T16:30:35.769Z,3.65
2022-10-03T16:33:13.778Z,3.03
2022-10-03T16:35:45.805Z,4.60
2022-10-03T16:38:22.133Z,8.35
2022-10-03T16:40:54.817Z,4.38
2022-10-03T16:43:25.219Z,5.60
2022-10-03T16:48:43.306Z,5.00
2022-10-03T16:51:19.294Z,6.22
2022-10-03T16:53:50.176Z,9.13
2022-10-03T16:56:23.267Z,7.50
2022-10-03T16:58:55.369Z,8.02
2022-10-03T17:01:31.809Z,8.27
2022-10-03T17:04:16.902Z,8.38
2022-10-03T17:06:48.738Z,8.02
2022-10-03T17:09:26.787Z,9.40
2022-10-03T17:11:58.682Z,5.80
2022-10-03T17:14:35.615Z,6.05
2022-10-03T17:17:09.410Z,5.78
2022-10-03T17:19:41.490Z,7.03
2022-10-03T17:22:16.848Z,4.97
2022-10-03T17:24:49.139Z,8.23
2022-10-03T17:27:29.466Z,7.03
2022-10-03T17:32:37.274Z,7.00
2022-10-03T17:35:12.892Z,7.88
2022-10-03T17:38:30.326Z,8.85
2022-10-03T17:41:14.305Z,3.78
2022-10-03T17:43:46.624Z,8.02
2022-10-03T17:46:24.596Z,7.95
2022-10-03T17:49:00.525Z,4.18
2022-10-03T17:51:35.775Z,6.55
2022-10-03T17:54:07.671Z,5.68
2022-10-03T17:56:36.409Z,4.30
2022-10-03T17:59:08.175Z,6.22
2022-10-03T18:01:43.755Z,6.47
2022-10-03T18:04:19.043Z,7.18
2022-10-03T18:06:48.418Z,7.72
2022-10-03T18:09:28.291Z,7.67
2022-10-03T18:12:05.404Z,6.57
2022-10-03T18:14:47.714Z,10.45
2022-10-03T18:17:23.124Z,9.55
2022-10-03T18:20:03.241Z,11.70
2022-10-03T18:22:40.579Z,15.90
2022-10-03T18:25:34.141Z,12.45
2022-10-03T18:28:13.721Z,15.70
2022-10-03T18:30:49.999Z,16.00
2022-10-03T18:33:24.200Z,10.90
2022-10-03T18:35:53.143Z,15.98
2022-10-03T18:38:24.623Z,12.77
2022-10-03T18:40:55.841Z,15.88
2022-10-03T18:43:28.467Z,15.57
2022-10-03T18:46:03.662Z,14.30
2022-10-03T18:48:40.174Z,17.88
2022-10-03T18:51:15.638Z,18.13
2022-10-03T18:53:49.741Z,12.18
2022-10-03T18:56:25.116Z,15.65
2022-10-03T18:59:08.210Z,12.88
2022-10-03T19:01:45.354Z,11.68
2022-10-03T19:04:20.898Z,12.15
2022-10-03T19:06:53.772Z,15.45
2022-10-03T19:09:27.227Z,9.43
2022-10-03T19:12:01.461Z,15.40
2022-10-03T19:14:34.885Z,9.35
2022-10-03T19:17:30.903Z,9.98
2022-10-03T19:20:13.947Z,8.02
2022-10-03T19:22:46.086Z,6.95
2022-10-03T19:25:22.855Z,9.85
2022-10-03T19:27:54.651Z,4.40
2022-10-03T19:30:24.753Z,5.88
2022-10-03T19:32:59.238Z,6.65
2022-10-03T19:35:30.907Z,6.50
2022-10-03T19:38:04.925Z,7.63
2022-10-03T19:40:52.270Z,8.55
2022-10-03T19:43:39.905Z,6.70
2022-10-03T19:46:22.469Z,6.25
2022-10-03T19:49:04.592Z,5.75
2022-10-03T19:51:34.126Z,7.50
2022-10-03T19:54:03.297Z,10.27
2022-10-03T19:56:36.514Z,7.47
2022-10-03T19:59:07.995Z,7.93
2022-10-03T20:01:44.687Z,7.70
2022-10-03T20:04:13.796Z,9.45
2022-10-03T20:06:49.058Z,6.07
2022-10-03T20:09:23.623Z,7.97
2022-10-03T20:11:56.464Z,4.07
2022-10-03T20:14:26.976Z,5.65
2022-10-03T20:16:58.094Z,6.38
2022-10-03T20:19:28.312Z,7.63
2022-10-03T20:22:03.404Z,7.38
2022-10-03T20:24:35.310Z,6.63
2022-10-03T20:27:15.509Z,8.63
2022-10-03T20:29:49.817Z,9.40
2022-10-03T20:32:19.301Z,8.73
2022-10-03T20:34:53.805Z,4.20
2022-10-03T20:37:45.557Z,5.18
2022-10-03T20:40:30.635Z,6.78
2022-10-03T20:43:20.997Z,9.07
2022-10-03T20:48:29.137Z,9.57
2022-10-03T20:50:57.505Z,8.38
2022-10-03T20:53:28.980Z,35.53
2022-10-03T20:56:01.659Z,20.38
2022-10-03T20:58:34.210Z,36.40
2022-10-03T21:01:05.759Z,19.58
2022-10-03T21:03:42.911Z,20.55
2022-10-03T21:06:19.168Z,12.10
2022-10-03T21:08:49.055Z,12.27
2022-10-03T21:11:22.297Z,7.78
2022-10-03T21:13:54.912Z,4.35
2022-10-03T21:16:27.032Z,8.63
2022-10-03T21:18:59.827Z,9.32
2022-10-03T21:21:33.685Z,9.48
2022-10-03T21:24:09.169Z,7.85
2022-10-03T21:26:44.208Z,7.35
2022-10-03T21:29:26.790Z,11.45
2022-10-03T21:32:04.783Z,10.57
2022-10-03T21:34:41.568Z,11.85
2022-10-03T21:37:17.414Z,8.80
2022-10-03T21:39:59.798Z,9.85
2022-10-03T21:42:32.760Z,7.95
2022-10-03T21:45:16.627Z,7.65
2022-10-03T21:47:49.951Z,5.82
2022-10-03T21:50:22.581Z,6.22
2022-10-03T21:53:06.744Z,5.70
2022-10-03T21:55:54.769Z,8.63
2022-10-03T21:58:40.315Z,4.32
2022-10-03T22:01:17.224Z,6.43
2022-10-03T22:03:52.684Z,5.00
2022-10-03T22:06:25.320Z,17.65
2022-10-03T22:08:54.609Z,29.67
2022-10-03T22:11:40.118Z,29.30
2022-10-03T22:14:19.899Z,10.10
2022-10-03T22:16:56.754Z,12.25
2022-10-03T22:19:34.431Z,6.10
2022-10-03T22:22:16.826Z,7.45
2022-10-03T22:24:56.428Z,7.22
2022-10-03T22:27:32.150Z,7.50
2022-10-03T22:30:05.159Z,13.02
2022-10-03T22:32:40.903Z,20.23
2022-10-03T22:35:29.894Z,37.30
2022-10-03T22:37:58.987Z,39.45
2022-10-03T22:40:28.215Z,31.77
2022-10-03T22:43:00.925Z,24.48
2022-10-03T22:45:32.259Z,33.20
2022-10-03T22:48:04.175Z,56.25
2022-10-03T22:50:35.451Z,44.78
2022-10-03T22:53:04.686Z,62.58
2022-10-03T22:55:33.047Z,46.63
2022-10-03T22:58:03.440Z,39.80
2022-10-03T23:00:35.697Z,35.88
2022-10-03T23:03:08.526Z,36.03
2022-10-03T23:05:58.362Z,38.15
2022-10-03T23:08:40.133Z,14.63
2022-10-03T23:11:17.394Z,10.00
2022-10-03T23:13:47.177Z,10.70
2022-10-03T23:16:32.919Z,10.93
2022-10-03T23:19:14.470Z,7.93
2022-10-03T23:21:47.356Z,6.28
2022-10-03T23:24:21.735Z,6.45
2022-10-03T23:27:08.244Z,11.00
2022-10-03T23:29:37.747Z,6.90
2022-10-03T23:32:06.744Z,6.07
2022-10-03T23:34:46.279Z,5.53
2022-10-03T23:37:44.109Z,8.02
2022-10-03T23:40:21.880Z,4.82
2022-10-03T23:43:01.876Z,5.65
2022-10-03T23:45:34.800Z,8.02
2022-10-03T23:48:07.355Z,5.20
2022-10-03T23:50:40.682Z,8.05
2022-10-03T23:53:17.487Z,4.30
2022-10-03T23:55:45.773Z,5.55
2022-10-03T23:58:25.858Z,7.22
